sensor_id;sensor_type;location;lat;lon;timestamp;P1;durP1;ratioP1;P2;durP2;ratioP2
12788;SDS011;6458;42.710;23.192;2023-05-07T00:00:35;11.20;;;10.10;;
12788;SDS011;6458;42.710;23.192;2023-05-07T00:03:02;11.57;;;8.90;;
12788;SDS011;6458;42.710;23.192;2023-05-07T00:05:29;9.83;;;8.93;;
12788;SDS011;6458;42.710;23.192;2023-05-07T00:07:56;12.23;;;9.33;;
12788;SDS011;6458;42.710;23.192;2023-05-07T00:10:22;11.73;;;10.53;;
12788;SDS011;6458;42.710;23.192;2023-05-07T00:12:50;13.10;;;8.77;;
12788;SDS011;6458;42.710;23.192;2023-05-07T00:15:17;12.43;;;9.13;;
12788;SDS011;6458;42.710;23.192;2023-05-07T00:17:45;10.57;;;8.93;;
12788;SDS011;6458;42.710;23.192;2023-05-07T00:20:12;12.43;;;9.20;;
12788;SDS011;6458;42.710;23.192;2023-05-07T00:22:38;12.37;;;8.20;;
12788;SDS011;6458;42.710;23.192;2023-05-07T00:25:05;10.83;;;8.00;;
12788;SDS011;6458;42.710;23.192;2023-05-07T00:27:32;9.37;;;7.70;;
12788;SDS011;6458;42.710;23.192;2023-05-07T00:29:59;8.77;;;7.87;;
12788;SDS011;6458;42.710;23.192;2023-05-07T00:32:26;9.50;;;7.87;;
12788;SDS011;6458;42.710;23.192;2023-05-07T00:34:54;8.83;;;7.93;;
12788;SDS011;6458;42.710;23.192;2023-05-07T00:37:21;10.80;;;8.90;;
12788;SDS011;6458;42.710;23.192;2023-05-07T00:39:47;11.17;;;8.73;;
12788;SDS011;6458;42.710;23.192;2023-05-07T00:42:14;11.70;;;8.43;;
12788;SDS011;6458;42.710;23.192;2023-05-07T00:44:41;8.80;;;7.43;;
12788;SDS011;6458;42.710;23.192;2023-05-07T00:47:08;12.57;;;8.20;;
12788;SDS011;6458;42.710;23.192;2023-05-07T00:49:35;13.60;;;8.63;;
12788;SDS011;6458;42.710;23.192;2023-05-07T00:52:05;15.20;;;10.70;;
12788;SDS011;6458;42.710;23.192;2023-05-07T00:54:32;17.87;;;11.73;;
12788;SDS011;6458;42.710;23.192;2023-05-07T00:56:59;13.80;;;10.63;;
12788;SDS011;6458;42.710;23.192;2023-05-07T00:59:27;11.93;;;8.47;;
12788;SDS011;6458;42.710;23.192;2023-05-07T01:01:54;9.23;;;7.30;;
12788;SDS011;6458;42.710;23.192;2023-05-07T01:04:21;8.90;;;7.67;;
12788;SDS011;6458;42.710;23.192;2023-05-07T01:06:49;10.37;;;8.53;;
12788;SDS011;6458;42.710;23.192;2023-05-07T01:09:18;8.73;;;7.57;;
12788;SDS011;6458;42.710;23.192;2023-05-07T01:11:45;8.17;;;6.83;;
12788;SDS011;6458;42.710;23.192;2023-05-07T01:14:13;7.70;;;6.90;;
12788;SDS011;6458;42.710;23.192;2023-05-07T01:16:39;10.23;;;7.80;;
12788;SDS011;6458;42.710;23.192;2023-05-07T01:19:06;9.37;;;7.00;;
12788;SDS011;6458;42.710;23.192;2023-05-07T01:21:35;9.23;;;7.40;;
12788;SDS011;6458;42.710;23.192;2023-05-07T01:24:05;8.67;;;7.77;;
12788;SDS011;6458;42.710;23.192;2023-05-07T01:26:32;7.93;;;6.87;;
12788;SDS011;6458;42.710;23.192;2023-05-07T01:28:59;10.83;;;8.23;;
12788;SDS011;6458;42.710;23.192;2023-05-07T01:31:26;9.80;;;7.57;;
12788;SDS011;6458;42.710;23.192;2023-05-07T01:33:52;7.93;;;7.13;;
12788;SDS011;6458;42.710;23.192;2023-05-07T01:36:20;8.10;;;6.50;;
12788;SDS011;6458;42.710;23.192;2023-05-07T01:38:49;8.17;;;7.37;;
12788;SDS011;6458;42.710;23.192;2023-05-07T01:41:18;8.00;;;7.13;;
12788;SDS011;6458;42.710;23.192;2023-05-07T01:43:45;13.93;;;7.67;;
12788;SDS011;6458;42.710;23.192;2023-05-07T01:46:12;7.40;;;6.60;;
12788;SDS011;6458;42.710;23.192;2023-05-07T01:48:39;11.47;;;7.67;;
12788;SDS011;6458;42.710;23.192;2023-05-07T01:51:06;7.67;;;6.90;;
12788;SDS011;6458;42.710;23.192;2023-05-07T01:53:37;8.00;;;7.17;;
12788;SDS011;6458;42.710;23.192;2023-05-07T01:56:04;7.33;;;6.50;;
12788;SDS011;6458;42.710;23.192;2023-05-07T01:58:32;10.17;;;8.07;;
12788;SDS011;6458;42.710;23.192;2023-05-07T02:00:59;8.27;;;7.40;;
12788;SDS011;6458;42.710;23.192;2023-05-07T02:03:25;9.47;;;8.53;;
12788;SDS011;6458;42.710;23.192;2023-05-07T02:05:52;11.73;;;8.30;;
12788;SDS011;6458;42.710;23.192;2023-05-07T02:08:19;12.80;;;7.97;;
12788;SDS011;6458;42.710;23.192;2023-05-07T02:10:45;11.80;;;8.07;;
12788;SDS011;6458;42.710;23.192;2023-05-07T02:13:12;10.93;;;8.40;;
12788;SDS011;6458;42.710;23.192;2023-05-07T02:15:40;10.67;;;8.67;;
12788;SDS011;6458;42.710;23.192;2023-05-07T02:18:07;9.77;;;8.43;;
12788;SDS011;6458;42.710;23.192;2023-05-07T02:20:34;11.53;;;8.47;;
12788;SDS011;6458;42.710;23.192;2023-05-07T02:23:01;13.03;;;8.60;;
12788;SDS011;6458;42.710;23.192;2023-05-07T02:25:27;11.53;;;9.90;;
12788;SDS011;6458;42.710;23.192;2023-05-07T02:27:55;11.37;;;9.30;;
12788;SDS011;6458;42.710;23.192;2023-05-07T02:30:21;11.73;;;9.53;;
12788;SDS011;6458;42.710;23.192;2023-05-07T02:32:50;9.83;;;8.70;;
12788;SDS011;6458;42.710;23.192;2023-05-07T02:35:17;11.23;;;9.13;;
12788;SDS011;6458;42.710;23.192;2023-05-07T02:37:43;10.43;;;8.80;;
12788;SDS011;6458;42.710;23.192;2023-05-07T02:40:10;12.23;;;9.60;;
12788;SDS011;6458;42.710;23.192;2023-05-07T02:42:38;12.17;;;9.37;;
12788;SDS011;6458;42.710;23.192;2023-05-07T02:45:05;8.27;;;7.40;;
12788;SDS011;6458;42.710;23.192;2023-05-07T02:47:31;11.70;;;8.30;;
12788;SDS011;6458;42.710;23.192;2023-05-07T02:50:00;8.33;;;7.60;;
12788;SDS011;6458;42.710;23.192;2023-05-07T02:52:26;9.80;;;7.97;;
12788;SDS011;6458;42.710;23.192;2023-05-07T02:54:53;9.40;;;8.40;;
12788;SDS011;6458;42.710;23.192;2023-05-07T02:57:20;11.40;;;7.87;;
12788;SDS011;6458;42.710;23.192;2023-05-07T02:59:46;9.97;;;8.97;;
12788;SDS011;6458;42.710;23.192;2023-05-07T03:02:13;9.30;;;8.40;;
12788;SDS011;6458;42.710;23.192;2023-05-07T03:04:40;10.07;;;8.70;;
12788;SDS011;6458;42.710;23.192;2023-05-07T03:07:09;9.77;;;8.77;;
12788;SDS011;6458;42.710;23.192;2023-05-07T03:09:35;9.47;;;8.47;;
12788;SDS011;6458;42.710;23.192;2023-05-07T03:12:02;13.27;;;10.47;;
12788;SDS011;6458;42.710;23.192;2023-05-07T03:14:29;11.27;;;9.23;;
12788;SDS011;6458;42.710;23.192;2023-05-07T03:16:55;9.40;;;8.27;;
12788;SDS011;6458;42.710;23.192;2023-05-07T03:19:22;12.80;;;9.37;;
12788;SDS011;6458;42.710;23.192;2023-05-07T03:21:49;11.53;;;9.33;;
12788;SDS011;6458;42.710;23.192;2023-05-07T03:24:17;13.97;;;11.07;;
12788;SDS011;6458;42.710;23.192;2023-05-07T03:26:44;11.63;;;9.90;;
12788;SDS011;6458;42.710;23.192;2023-05-07T03:29:10;12.53;;;10.30;;
12788;SDS011;6458;42.710;23.192;2023-05-07T03:31:37;12.23;;;9.70;;
12788;SDS011;6458;42.710;23.192;2023-05-07T03:34:04;12.17;;;9.23;;
12788;SDS011;6458;42.710;23.192;2023-05-07T03:36:30;10.43;;;9.33;;
12788;SDS011;6458;42.710;23.192;2023-05-07T03:38:57;11.50;;;9.17;;
12788;SDS011;6458;42.710;23.192;2023-05-07T03:41:25;9.17;;;8.27;;
12788;SDS011;6458;42.710;23.192;2023-05-07T03:43:52;11.33;;;8.80;;
12788;SDS011;6458;42.710;23.192;2023-05-07T03:46:19;9.03;;;8.13;;
12788;SDS011;6458;42.710;23.192;2023-05-07T03:48:46;10.23;;;9.23;;
12788;SDS011;6458;42.710;23.192;2023-05-07T03:51:12;10.57;;;9.47;;
12788;SDS011;6458;42.710;23.192;2023-05-07T03:53:39;10.30;;;9.30;;
12788;SDS011;6458;42.710;23.192;2023-05-07T03:56:06;10.03;;;9.03;;
12788;SDS011;6458;42.710;23.192;2023-05-07T03:58:34;9.97;;;8.97;;
12788;SDS011;6458;42.710;23.192;2023-05-07T04:01:01;8.90;;;8.10;;
12788;SDS011;6458;42.710;23.192;2023-05-07T04:03:28;11.00;;;8.37;;
12788;SDS011;6458;42.710;23.192;2023-05-07T04:05:54;8.80;;;8.10;;
12788;SDS011;6458;42.710;23.192;2023-05-07T04:08:21;8.57;;;7.87;;
12788;SDS011;6458;42.710;23.192;2023-05-07T04:10:48;7.60;;;7.00;;
12788;SDS011;6458;42.710;23.192;2023-05-07T04:13:14;9.43;;;7.67;;
12788;SDS011;6458;42.710;23.192;2023-05-07T04:15:42;7.77;;;7.10;;
12788;SDS011;6458;42.710;23.192;2023-05-07T04:18:11;7.33;;;6.63;;
12788;SDS011;6458;42.710;23.192;2023-05-07T04:20:38;7.23;;;6.60;;
12788;SDS011;6458;42.710;23.192;2023-05-07T04:23:04;7.70;;;7.00;;
12788;SDS011;6458;42.710;23.192;2023-05-07T04:25:32;8.10;;;7.37;;
12788;SDS011;6458;42.710;23.192;2023-05-07T04:27:58;7.93;;;7.13;;
12788;SDS011;6458;42.710;23.192;2023-05-07T04:30:26;7.37;;;6.87;;
12788;SDS011;6458;42.710;23.192;2023-05-07T04:32:54;8.77;;;7.97;;
12788;SDS011;6458;42.710;23.192;2023-05-07T04:35:21;7.57;;;6.83;;
12788;SDS011;6458;42.710;23.192;2023-05-07T04:37:48;8.30;;;7.50;;
12788;SDS011;6458;42.710;23.192;2023-05-07T04:40:14;7.93;;;7.13;;
12788;SDS011;6458;42.710;23.192;2023-05-07T04:42:41;7.60;;;6.93;;
12788;SDS011;6458;42.710;23.192;2023-05-07T04:45:08;8.63;;;7.93;;
12788;SDS011;6458;42.710;23.192;2023-05-07T04:47:35;7.80;;;7.17;;
12788;SDS011;6458;42.710;23.192;2023-05-07T04:50:03;8.20;;;7.53;;
12788;SDS011;6458;42.710;23.192;2023-05-07T04:52:30;8.10;;;7.50;;
12788;SDS011;6458;42.710;23.192;2023-05-07T04:57:25;7.97;;;7.23;;
12788;SDS011;6458;42.710;23.192;2023-05-07T04:59:51;8.27;;;7.47;;
12788;SDS011;6458;42.710;23.192;2023-05-07T05:02:18;8.67;;;7.80;;
12788;SDS011;6458;42.710;23.192;2023-05-07T05:04:45;8.23;;;7.63;;
12788;SDS011;6458;42.710;23.192;2023-05-07T05:07:13;8.87;;;8.07;;
12788;SDS011;6458;42.710;23.192;2023-05-07T05:09:40;8.93;;;8.23;;
12788;SDS011;6458;42.710;23.192;2023-05-07T05:12:06;8.23;;;7.53;;
12788;SDS011;6458;42.710;23.192;2023-05-07T05:14:33;10.07;;;8.43;;
12788;SDS011;6458;42.710;23.192;2023-05-07T05:17:00;8.33;;;7.73;;
12788;SDS011;6458;42.710;23.192;2023-05-07T05:19:27;8.87;;;8.07;;
12788;SDS011;6458;42.710;23.192;2023-05-07T05:21:53;8.83;;;8.00;;
12788;SDS011;6458;42.710;23.192;2023-05-07T05:24:21;9.03;;;8.33;;
12788;SDS011;6458;42.710;23.192;2023-05-07T05:26:48;8.97;;;8.27;;
12788;SDS011;6458;42.710;23.192;2023-05-07T05:29:15;9.10;;;8.20;;
12788;SDS011;6458;42.710;23.192;2023-05-07T05:31:42;10.17;;;8.97;;
12788;SDS011;6458;42.710;23.192;2023-05-07T05:34:09;9.53;;;8.67;;
12788;SDS011;6458;42.710;23.192;2023-05-07T05:36:35;8.73;;;8.03;;
12788;SDS011;6458;42.710;23.192;2023-05-07T05:39:02;9.10;;;8.30;;
12788;SDS011;6458;42.710;23.192;2023-05-07T05:41:30;9.00;;;7.90;;
12788;SDS011;6458;42.710;23.192;2023-05-07T05:43:57;9.03;;;8.33;;
12788;SDS011;6458;42.710;23.192;2023-05-07T05:46:24;9.20;;;8.30;;
12788;SDS011;6458;42.710;23.192;2023-05-07T05:48:50;8.93;;;8.17;;
12788;SDS011;6458;42.710;23.192;2023-05-07T05:51:17;9.20;;;8.30;;
12788;SDS011;6458;42.710;23.192;2023-05-07T05:53:44;9.40;;;8.47;;
12788;SDS011;6458;42.710;23.192;2023-05-07T05:56:10;9.47;;;8.07;;
12788;SDS011;6458;42.710;23.192;2023-05-07T05:58:39;9.67;;;8.87;;
12788;SDS011;6458;42.710;23.192;2023-05-07T06:01:06;8.40;;;7.70;;
12788;SDS011;6458;42.710;23.192;2023-05-07T06:03:32;9.43;;;8.53;;
12788;SDS011;6458;42.710;23.192;2023-05-07T06:05:59;8.97;;;8.00;;
12788;SDS011;6458;42.710;23.192;2023-05-07T06:08:28;8.10;;;7.50;;
12788;SDS011;6458;42.710;23.192;2023-05-07T06:10:55;8.70;;;7.90;;
12788;SDS011;6458;42.710;23.192;2023-05-07T06:13:22;8.60;;;7.70;;
12788;SDS011;6458;42.710;23.192;2023-05-07T06:15:50;8.30;;;7.50;;
12788;SDS011;6458;42.710;23.192;2023-05-07T06:18:17;8.90;;;7.97;;
12788;SDS011;6458;42.710;23.192;2023-05-07T06:20:44;8.10;;;7.40;;
12788;SDS011;6458;42.710;23.192;2023-05-07T06:23:10;9.03;;;8.23;;
12788;SDS011;6458;42.710;23.192;2023-05-07T06:25:37;8.00;;;7.40;;
12788;SDS011;6458;42.710;23.192;2023-05-07T06:28:04;8.40;;;7.60;;
12788;SDS011;6458;42.710;23.192;2023-05-07T06:30:30;8.13;;;7.53;;
12788;SDS011;6458;42.710;23.192;2023-05-07T06:32:59;8.43;;;7.60;;
12788;SDS011;6458;42.710;23.192;2023-05-07T06:35:25;8.27;;;7.47;;
12788;SDS011;6458;42.710;23.192;2023-05-07T06:37:52;8.10;;;7.43;;
12788;SDS011;6458;42.710;23.192;2023-05-07T06:40:19;8.57;;;7.87;;
12788;SDS011;6458;42.710;23.192;2023-05-07T06:42:45;8.83;;;8.10;;
12788;SDS011;6458;42.710;23.192;2023-05-07T06:45:12;7.80;;;7.20;;
12788;SDS011;6458;42.710;23.192;2023-05-07T06:47:39;7.53;;;7.00;;
12788;SDS011;6458;42.710;23.192;2023-05-07T06:50:08;8.13;;;7.43;;
12788;SDS011;6458;42.710;23.192;2023-05-07T06:52:34;8.90;;;8.10;;
12788;SDS011;6458;42.710;23.192;2023-05-07T06:55:01;11.70;;;8.70;;
12788;SDS011;6458;42.710;23.192;2023-05-07T06:57:28;8.70;;;7.90;;
12788;SDS011;6458;42.710;23.192;2023-05-07T06:59:55;8.87;;;7.50;;
12788;SDS011;6458;42.710;23.192;2023-05-07T07:02:21;7.97;;;7.17;;
12788;SDS011;6458;42.710;23.192;2023-05-07T07:04:48;8.77;;;7.93;;
12788;SDS011;6458;42.710;23.192;2023-05-07T07:07:16;8.93;;;7.53;;
12788;SDS011;6458;42.710;23.192;2023-05-07T07:09:43;8.67;;;7.87;;
12788;SDS011;6458;42.710;23.192;2023-05-07T07:12:09;9.17;;;8.43;;
12788;SDS011;6458;42.710;23.192;2023-05-07T07:14:36;8.00;;;7.33;;
12788;SDS011;6458;42.710;23.192;2023-05-07T07:17:03;8.77;;;7.97;;
12788;SDS011;6458;42.710;23.192;2023-05-07T07:19:30;7.57;;;6.87;;
12788;SDS011;6458;42.710;23.192;2023-05-07T07:21:56;8.03;;;7.33;;
12788;SDS011;6458;42.710;23.192;2023-05-07T07:24:25;7.93;;;7.23;;
12788;SDS011;6458;42.710;23.192;2023-05-07T07:26:51;7.73;;;7.03;;
12788;SDS011;6458;42.710;23.192;2023-05-07T07:29:20;8.10;;;7.40;;
12788;SDS011;6458;42.710;23.192;2023-05-07T07:31:47;7.83;;;7.13;;
12788;SDS011;6458;42.710;23.192;2023-05-07T07:34:16;7.43;;;6.83;;
12788;SDS011;6458;42.710;23.192;2023-05-07T07:36:43;7.87;;;7.27;;
12788;SDS011;6458;42.710;23.192;2023-05-07T07:39:09;7.20;;;6.60;;
12788;SDS011;6458;42.710;23.192;2023-05-07T07:41:37;7.37;;;6.70;;
12788;SDS011;6458;42.710;23.192;2023-05-07T07:44:04;7.93;;;6.37;;
12788;SDS011;6458;42.710;23.192;2023-05-07T07:46:32;7.93;;;7.23;;
12788;SDS011;6458;42.710;23.192;2023-05-07T07:48:59;7.70;;;7.10;;
12788;SDS011;6458;42.710;23.192;2023-05-07T07:51:26;7.80;;;7.10;;
12788;SDS011;6458;42.710;23.192;2023-05-07T07:53:53;7.27;;;6.80;;
12788;SDS011;6458;42.710;23.192;2023-05-07T07:56:20;7.47;;;6.83;;
12788;SDS011;6458;42.710;23.192;2023-05-07T07:58:49;6.60;;;6.10;;
12788;SDS011;6458;42.710;23.192;2023-05-07T08:01:15;6.77;;;6.27;;
12788;SDS011;6458;42.710;23.192;2023-05-07T08:03:45;6.10;;;5.60;;
12788;SDS011;6458;42.710;23.192;2023-05-07T08:06:12;5.93;;;5.50;;
12788;SDS011;6458;42.710;23.192;2023-05-07T08:08:39;6.50;;;6.00;;
12788;SDS011;6458;42.710;23.192;2023-05-07T08:11:05;6.87;;;6.37;;
12788;SDS011;6458;42.710;23.192;2023-05-07T08:13:32;6.83;;;6.23;;
12788;SDS011;6458;42.710;23.192;2023-05-07T08:16:00;5.93;;;5.43;;
12788;SDS011;6458;42.710;23.192;2023-05-07T08:18:27;6.13;;;5.70;;
12788;SDS011;6458;42.710;23.192;2023-05-07T08:20:54;6.63;;;6.13;;
12788;SDS011;6458;42.710;23.192;2023-05-07T08:23:21;6.10;;;5.60;;
12788;SDS011;6458;42.710;23.192;2023-05-07T08:25:48;5.87;;;5.40;;
12788;SDS011;6458;42.710;23.192;2023-05-07T08:28:20;4.83;;;4.53;;
12788;SDS011;6458;42.710;23.192;2023-05-07T08:30:47;5.37;;;4.87;;
12788;SDS011;6458;42.710;23.192;2023-05-07T08:33:15;5.73;;;5.23;;
12788;SDS011;6458;42.710;23.192;2023-05-07T08:35:42;5.90;;;5.50;;
12788;SDS011;6458;42.710;23.192;2023-05-07T08:38:08;5.77;;;5.33;;
12788;SDS011;6458;42.710;23.192;2023-05-07T08:40:36;5.10;;;4.80;;
12788;SDS011;6458;42.710;23.192;2023-05-07T08:43:04;5.90;;;5.33;;
12788;SDS011;6458;42.710;23.192;2023-05-07T08:45:32;5.60;;;5.20;;
12788;SDS011;6458;42.710;23.192;2023-05-07T08:48:00;5.43;;;5.03;;
12788;SDS011;6458;42.710;23.192;2023-05-07T08:50:29;5.57;;;5.17;;
12788;SDS011;6458;42.710;23.192;2023-05-07T08:52:56;5.60;;;5.30;;
12788;SDS011;6458;42.710;23.192;2023-05-07T08:55:23;6.07;;;5.67;;
12788;SDS011;6458;42.710;23.192;2023-05-07T08:57:50;6.00;;;5.60;;
12788;SDS011;6458;42.710;23.192;2023-05-07T09:00:18;5.90;;;5.40;;
12788;SDS011;6458;42.710;23.192;2023-05-07T09:02:44;5.63;;;5.23;;
12788;SDS011;6458;42.710;23.192;2023-05-07T09:05:11;5.33;;;4.90;;
12788;SDS011;6458;42.710;23.192;2023-05-07T09:07:39;5.73;;;5.30;;
12788;SDS011;6458;42.710;23.192;2023-05-07T09:10:06;5.53;;;5.17;;
12788;SDS011;6458;42.710;23.192;2023-05-07T09:12:33;5.47;;;5.00;;
12788;SDS011;6458;42.710;23.192;2023-05-07T09:15:00;5.50;;;5.03;;
12788;SDS011;6458;42.710;23.192;2023-05-07T09:17:27;5.40;;;5.10;;
12788;SDS011;6458;42.710;23.192;2023-05-07T09:19:54;5.37;;;4.97;;
12788;SDS011;6458;42.710;23.192;2023-05-07T09:22:21;5.50;;;4.77;;
12788;SDS011;6458;42.710;23.192;2023-05-07T09:24:50;4.40;;;4.13;;
12788;SDS011;6458;42.710;23.192;2023-05-07T09:27:17;4.63;;;4.37;;
12788;SDS011;6458;42.710;23.192;2023-05-07T09:29:43;4.20;;;4.00;;
12788;SDS011;6458;42.710;23.192;2023-05-07T09:32:10;5.07;;;4.30;;
12788;SDS011;6458;42.710;23.192;2023-05-07T09:34:37;5.07;;;4.57;;
12788;SDS011;6458;42.710;23.192;2023-05-07T09:37:04;4.70;;;4.40;;
12788;SDS011;6458;42.710;23.192;2023-05-07T09:39:40;5.17;;;4.87;;
12788;SDS011;6458;42.710;23.192;2023-05-07T09:42:09;5.20;;;4.90;;
12788;SDS011;6458;42.710;23.192;2023-05-07T09:44:36;4.90;;;4.67;;
12788;SDS011;6458;42.710;23.192;2023-05-07T09:47:04;5.00;;;4.70;;
12788;SDS011;6458;42.710;23.192;2023-05-07T09:49:33;5.20;;;4.80;;
12788;SDS011;6458;42.710;23.192;2023-05-07T09:52:00;5.20;;;4.80;;
12788;SDS011;6458;42.710;23.192;2023-05-07T09:54:27;4.63;;;4.30;;
12788;SDS011;6458;42.710;23.192;2023-05-07T09:56:54;5.63;;;4.53;;
12788;SDS011;6458;42.710;23.192;2023-05-07T09:59:23;5.17;;;4.87;;
12788;SDS011;6458;42.710;23.192;2023-05-07T10:01:50;4.37;;;4.17;;
12788;SDS011;6458;42.710;23.192;2023-05-07T10:04:18;5.37;;;5.03;;
12788;SDS011;6458;42.710;23.192;2023-05-07T10:06:46;4.37;;;4.03;;
12788;SDS011;6458;42.710;23.192;2023-05-07T10:09:13;4.87;;;4.53;;
12788;SDS011;6458;42.710;23.192;2023-05-07T10:11:40;4.80;;;4.60;;
12788;SDS011;6458;42.710;23.192;2023-05-07T10:14:07;4.63;;;4.30;;
12788;SDS011;6458;42.710;23.192;2023-05-07T10:16:36;3.93;;;3.73;;
12788;SDS011;6458;42.710;23.192;2023-05-07T10:19:02;4.13;;;3.90;;
12788;SDS011;6458;42.710;23.192;2023-05-07T10:21:29;4.20;;;4.00;;
12788;SDS011;6458;42.710;23.192;2023-05-07T10:23:58;4.37;;;4.17;;
12788;SDS011;6458;42.710;23.192;2023-05-07T10:26:24;3.80;;;3.50;;
12788;SDS011;6458;42.710;23.192;2023-05-07T10:28:53;4.27;;;3.97;;
12788;SDS011;6458;42.710;23.192;2023-05-07T10:31:25;4.10;;;3.80;;
12788;SDS011;6458;42.710;23.192;2023-05-07T10:33:56;4.40;;;4.00;;
12788;SDS011;6458;42.710;23.192;2023-05-07T10:36:24;4.47;;;4.07;;
12788;SDS011;6458;42.710;23.192;2023-05-07T10:38:51;4.53;;;4.10;;
12788;SDS011;6458;42.710;23.192;2023-05-07T10:41:18;4.27;;;4.07;;
12788;SDS011;6458;42.710;23.192;2023-05-07T10:43:46;3.73;;;3.57;;
12788;SDS011;6458;42.710;23.192;2023-05-07T10:46:14;4.50;;;4.20;;
12788;SDS011;6458;42.710;23.192;2023-05-07T10:51:28;4.27;;;4.07;;
12788;SDS011;6458;42.710;23.192;2023-05-07T10:56:38;3.80;;;3.60;;
12788;SDS011;6458;42.710;23.192;2023-05-07T11:01:53;3.53;;;3.33;;
12788;SDS011;6458;42.710;23.192;2023-05-07T11:04:20;3.60;;;3.50;;
12788;SDS011;6458;42.710;23.192;2023-05-07T11:09:58;5.60;;;5.10;;
12788;SDS011;6458;42.710;23.192;2023-05-07T11:15:11;4.17;;;3.97;;
12788;SDS011;6458;42.710;23.192;2023-05-07T11:17:51;3.50;;;3.30;;
12788;SDS011;6458;42.710;23.192;2023-05-07T11:20:18;3.87;;;3.57;;
12788;SDS011;6458;42.710;23.192;2023-05-07T11:22:45;4.10;;;3.90;;
12788;SDS011;6458;42.710;23.192;2023-05-07T11:25:14;4.33;;;3.93;;
12788;SDS011;6458;42.710;23.192;2023-05-07T11:27:43;4.40;;;4.00;;
12788;SDS011;6458;42.710;23.192;2023-05-07T11:30:11;4.03;;;3.77;;
12788;SDS011;6458;42.710;23.192;2023-05-07T11:32:42;3.87;;;3.60;;
12788;SDS011;6458;42.710;23.192;2023-05-07T11:35:09;4.00;;;3.87;;
12788;SDS011;6458;42.710;23.192;2023-05-07T11:37:36;4.30;;;4.00;;
12788;SDS011;6458;42.710;23.192;2023-05-07T11:40:03;3.80;;;3.60;;
12788;SDS011;6458;42.710;23.192;2023-05-07T11:42:33;3.83;;;3.57;;
12788;SDS011;6458;42.710;23.192;2023-05-07T11:45:00;3.90;;;3.70;;
12788;SDS011;6458;42.710;23.192;2023-05-07T11:47:29;3.97;;;3.70;;
12788;SDS011;6458;42.710;23.192;2023-05-07T11:49:56;4.07;;;3.87;;
12788;SDS011;6458;42.710;23.192;2023-05-07T11:52:23;3.97;;;3.77;;
12788;SDS011;6458;42.710;23.192;2023-05-07T11:54:50;3.60;;;3.40;;
12788;SDS011;6458;42.710;23.192;2023-05-07T11:57:19;3.53;;;3.40;;
12788;SDS011;6458;42.710;23.192;2023-05-07T11:59:47;3.50;;;3.40;;
12788;SDS011;6458;42.710;23.192;2023-05-07T12:02:14;3.80;;;3.70;;
12788;SDS011;6458;42.710;23.192;2023-05-07T12:04:41;3.60;;;3.40;;
12788;SDS011;6458;42.710;23.192;2023-05-07T12:07:10;3.37;;;3.27;;
12788;SDS011;6458;42.710;23.192;2023-05-07T12:09:37;3.67;;;3.57;;
12788;SDS011;6458;42.710;23.192;2023-05-07T12:12:04;3.67;;;3.47;;
12788;SDS011;6458;42.710;23.192;2023-05-07T12:14:31;3.50;;;3.40;;
12788;SDS011;6458;42.710;23.192;2023-05-07T12:16:59;3.43;;;3.23;;
12788;SDS011;6458;42.710;23.192;2023-05-07T12:19:28;3.70;;;3.60;;
12788;SDS011;6458;42.710;23.192;2023-05-07T12:21:54;4.40;;;4.03;;
12788;SDS011;6458;42.710;23.192;2023-05-07T12:24:21;6.53;;;3.87;;
12788;SDS011;6458;42.710;23.192;2023-05-07T12:26:48;3.70;;;3.60;;
12788;SDS011;6458;42.710;23.192;2023-05-07T12:29:15;3.53;;;3.33;;
12788;SDS011;6458;42.710;23.192;2023-05-07T12:31:41;3.30;;;3.20;;
12788;SDS011;6458;42.710;23.192;2023-05-07T12:34:09;3.90;;;3.60;;
12788;SDS011;6458;42.710;23.192;2023-05-07T12:36:37;4.07;;;3.87;;
12788;SDS011;6458;42.710;23.192;2023-05-07T12:39:04;3.90;;;3.60;;
12788;SDS011;6458;42.710;23.192;2023-05-07T12:41:30;3.43;;;3.33;;
12788;SDS011;6458;42.710;23.192;2023-05-07T12:43:57;3.77;;;3.57;;
12788;SDS011;6458;42.710;23.192;2023-05-07T12:46:26;4.10;;;3.80;;
12788;SDS011;6458;42.710;23.192;2023-05-07T12:48:53;3.60;;;3.40;;
12788;SDS011;6458;42.710;23.192;2023-05-07T12:51:21;4.23;;;3.83;;
12788;SDS011;6458;42.710;23.192;2023-05-07T12:53:48;3.80;;;3.60;;
12788;SDS011;6458;42.710;23.192;2023-05-07T12:56:16;3.77;;;3.57;;
12788;SDS011;6458;42.710;23.192;2023-05-07T12:58:43;4.00;;;3.70;;
12788;SDS011;6458;42.710;23.192;2023-05-07T13:01:09;3.83;;;3.70;;
12788;SDS011;6458;42.710;23.192;2023-05-07T13:03:40;4.30;;;4.00;;
12788;SDS011;6458;42.710;23.192;2023-05-07T13:06:07;3.80;;;3.70;;
12788;SDS011;6458;42.710;23.192;2023-05-07T13:08:39;4.37;;;4.17;;
12788;SDS011;6458;42.710;23.192;2023-05-07T13:11:08;3.93;;;3.73;;
12788;SDS011;6458;42.710;23.192;2023-05-07T13:13:36;3.53;;;3.43;;
12788;SDS011;6458;42.710;23.192;2023-05-07T13:16:04;3.77;;;3.47;;
12788;SDS011;6458;42.710;23.192;2023-05-07T13:18:31;4.40;;;4.10;;
12788;SDS011;6458;42.710;23.192;2023-05-07T13:20:59;3.93;;;3.63;;
12788;SDS011;6458;42.710;23.192;2023-05-07T13:23:26;3.70;;;3.50;;
12788;SDS011;6458;42.710;23.192;2023-05-07T13:25:54;3.53;;;3.33;;
12788;SDS011;6458;42.710;23.192;2023-05-07T13:28:21;4.33;;;3.97;;
12788;SDS011;6458;42.710;23.192;2023-05-07T13:30:48;4.57;;;4.07;;
12788;SDS011;6458;42.710;23.192;2023-05-07T13:33:17;3.60;;;3.40;;
12788;SDS011;6458;42.710;23.192;2023-05-07T13:35:44;3.90;;;3.70;;
12788;SDS011;6458;42.710;23.192;2023-05-07T13:38:10;3.77;;;3.67;;
12788;SDS011;6458;42.710;23.192;2023-05-07T13:40:37;3.90;;;3.70;;
12788;SDS011;6458;42.710;23.192;2023-05-07T13:43:05;5.03;;;3.57;;
12788;SDS011;6458;42.710;23.192;2023-05-07T13:45:33;3.80;;;3.60;;
12788;SDS011;6458;42.710;23.192;2023-05-07T13:48:00;3.97;;;3.70;;
12788;SDS011;6458;42.710;23.192;2023-05-07T13:50:26;3.90;;;3.70;;
12788;SDS011;6458;42.710;23.192;2023-05-07T13:52:54;3.70;;;3.50;;
12788;SDS011;6458;42.710;23.192;2023-05-07T13:55:21;3.83;;;3.63;;
12788;SDS011;6458;42.710;23.192;2023-05-07T13:57:54;4.33;;;3.83;;
12788;SDS011;6458;42.710;23.192;2023-05-07T14:00:22;3.87;;;3.57;;
12788;SDS011;6458;42.710;23.192;2023-05-07T14:02:49;4.03;;;3.70;;
12788;SDS011;6458;42.710;23.192;2023-05-07T14:05:16;4.70;;;4.27;;
12788;SDS011;6458;42.710;23.192;2023-05-07T14:07:42;4.70;;;4.30;;
12788;SDS011;6458;42.710;23.192;2023-05-07T14:10:10;4.00;;;3.80;;
12788;SDS011;6458;42.710;23.192;2023-05-07T14:12:38;4.10;;;3.70;;
12788;SDS011;6458;42.710;23.192;2023-05-07T14:15:06;4.13;;;3.93;;
12788;SDS011;6458;42.710;23.192;2023-05-07T14:17:34;4.33;;;4.03;;
12788;SDS011;6458;42.710;23.192;2023-05-07T14:20:01;3.23;;;3.13;;
12788;SDS011;6458;42.710;23.192;2023-05-07T14:22:27;4.20;;;3.40;;
12788;SDS011;6458;42.710;23.192;2023-05-07T14:24:54;3.70;;;3.50;;
12788;SDS011;6458;42.710;23.192;2023-05-07T14:27:21;4.70;;;4.03;;
12788;SDS011;6458;42.710;23.192;2023-05-07T14:29:47;3.77;;;3.57;;
12788;SDS011;6458;42.710;23.192;2023-05-07T14:32:16;3.53;;;3.43;;
12788;SDS011;6458;42.710;23.192;2023-05-07T14:34:45;3.53;;;3.40;;
12788;SDS011;6458;42.710;23.192;2023-05-07T14:37:12;4.00;;;3.70;;
12788;SDS011;6458;42.710;23.192;2023-05-07T14:39:38;4.00;;;3.70;;
12788;SDS011;6458;42.710;23.192;2023-05-07T14:42:05;4.00;;;3.87;;
12788;SDS011;6458;42.710;23.192;2023-05-07T14:44:32;3.77;;;3.57;;
12788;SDS011;6458;42.710;23.192;2023-05-07T14:46:59;3.60;;;3.30;;
12788;SDS011;6458;42.710;23.192;2023-05-07T14:49:26;4.13;;;3.80;;
12788;SDS011;6458;42.710;23.192;2023-05-07T14:51:56;3.63;;;3.43;;
12788;SDS011;6458;42.710;23.192;2023-05-07T14:54:23;5.10;;;3.53;;
12788;SDS011;6458;42.710;23.192;2023-05-07T14:56:50;3.83;;;3.63;;
12788;SDS011;6458;42.710;23.192;2023-05-07T14:59:16;4.03;;;3.83;;
12788;SDS011;6458;42.710;23.192;2023-05-07T15:01:46;6.37;;;3.80;;